createdAt,value
2018-03-18T00:02:02.340Z,45.60
2018-03-18T00:04:29.415Z,43.87
2018-03-18T00:06:56.938Z,42.30
2018-03-18T00:09:24.007Z,39.43
2018-03-18T00:11:51.115Z,39.97
2018-03-18T00:14:18.146Z,42.33
2018-03-18T00:19:25.038Z,46.08
2018-03-18T00:21:52.085Z,41.00
2018-03-18T00:24:20.031Z,42.27
2018-03-18T00:26:47.101Z,42.63
2018-03-18T00:29:14.141Z,41.93
2018-03-18T00:31:41.163Z,43.90
2018-03-18T00:34:08.250Z,48.43
2018-03-18T00:36:35.264Z,40.80
2018-03-18T00:39:04.163Z,42.60
2018-03-18T00:41:31.244Z,42.30
2018-03-18T00:43:58.824Z,42.57
2018-03-18T00:46:25.841Z,43.00
2018-03-18T00:48:52.926Z,43.57
2018-03-18T00:51:31.839Z,44.53
2018-03-18T00:54:04.766Z,45.73
2018-03-18T00:56:31.792Z,40.00
2018-03-18T00:58:58.819Z,43.90
2018-03-18T01:04:06.824Z,46.25
2018-03-18T01:06:33.894Z,45.07
2018-03-18T01:09:00.920Z,43.47
2018-03-18T01:11:28.412Z,45.27
2018-03-18T01:13:57.704Z,45.87
2018-03-18T01:16:22.936Z,44.50
2018-03-18T01:18:49.971Z,42.73
2018-03-18T01:21:17.045Z,45.97
2018-03-18T01:23:44.068Z,43.30
2018-03-18T01:26:11.091Z,45.93
2018-03-18T01:28:38.173Z,43.47
2018-03-18T01:31:05.190Z,46.60
2018-03-18T01:33:33.036Z,48.20
2018-03-18T01:36:00.113Z,42.47
2018-03-18T01:38:27.154Z,46.00
2018-03-18T01:40:54.173Z,46.30
2018-03-18T01:43:21.244Z,50.73
2018-03-18T01:45:48.285Z,50.40
2018-03-18T01:48:15.310Z,43.37
2018-03-18T01:50:42.386Z,51.00
2018-03-18T01:53:21.158Z,43.23
2018-03-18T01:55:48.239Z,46.97
2018-03-18T01:58:15.255Z,51.63
2018-03-18T02:00:42.274Z,46.90
2018-03-18T02:03:09.360Z,49.47
2018-03-18T02:05:36.389Z,49.67
2018-03-18T02:08:03.443Z,49.43
2018-03-18T02:10:31.498Z,50.80
2018-03-18T02:12:58.509Z,48.20
2018-03-18T02:15:25.533Z,48.63
2018-03-18T02:17:52.616Z,56.63
2018-03-18T02:20:19.627Z,45.77
2018-03-18T02:22:46.652Z,49.97
2018-03-18T02:25:14.634Z,51.43
2018-03-18T02:30:20.233Z,54.45
2018-03-18T02:32:47.261Z,48.80
2018-03-18T02:35:14.293Z,49.00
2018-03-18T02:37:41.358Z,51.10
2018-03-18T02:40:08.386Z,48.53
2018-03-18T02:42:35.403Z,48.77
2018-03-18T02:45:02.463Z,46.40
2018-03-18T02:47:29.495Z,51.43
2018-03-18T02:49:56.524Z,45.87
2018-03-18T02:52:23.587Z,48.77
2018-03-18T02:54:51.839Z,44.50
2018-03-18T02:57:18.864Z,48.97
2018-03-18T02:59:45.948Z,52.20
2018-03-18T03:02:13.892Z,50.07
2018-03-18T03:04:40.921Z,44.80
2018-03-18T03:07:08.001Z,52.97
2018-03-18T03:09:35.123Z,48.43
2018-03-18T03:12:02.153Z,49.47
2018-03-18T03:14:29.242Z,51.63
2018-03-18T03:16:56.268Z,50.97
2018-03-18T03:19:23.281Z,48.43
2018-03-18T03:21:50.372Z,53.20
2018-03-18T03:24:17.394Z,47.23
2018-03-18T03:29:25.990Z,54.10
2018-03-18T03:31:53.001Z,50.57
2018-03-18T03:34:20.110Z,53.43
2018-03-18T03:36:47.175Z,53.13
2018-03-18T03:39:14.229Z,47.80
2018-03-18T03:41:41.237Z,52.60
2018-03-18T03:44:08.338Z,48.73
2018-03-18T03:46:36.182Z,47.23
2018-03-18T03:49:03.202Z,44.40
2018-03-18T03:51:30.252Z,50.93
2018-03-18T03:53:57.266Z,51.73
2018-03-18T03:56:24.312Z,52.33
2018-03-18T03:58:51.384Z,52.13
2018-03-18T04:01:18.406Z,51.03
2018-03-18T04:03:45.445Z,46.93
2018-03-18T04:06:12.523Z,47.70
2018-03-18T04:08:39.542Z,47.47
2018-03-18T04:11:06.564Z,48.87
2018-03-18T04:13:34.607Z,50.27
2018-03-18T04:16:01.622Z,51.27
2018-03-18T04:18:28.646Z,47.60
2018-03-18T04:20:55.718Z,46.83
2018-03-18T04:23:22.732Z,50.53
2018-03-18T04:25:49.822Z,52.37
2018-03-18T04:28:16.911Z,51.50
2018-03-18T04:30:44.882Z,55.07
2018-03-18T04:33:12.858Z,54.43
2018-03-18T04:35:39.929Z,56.90
2018-03-18T04:38:06.954Z,53.70
2018-03-18T04:40:33.996Z,49.80
2018-03-18T04:43:02.827Z,55.23
2018-03-18T04:45:29.839Z,55.90
2018-03-18T04:47:56.866Z,56.23
2018-03-18T04:50:23.922Z,60.77
2018-03-18T04:55:29.489Z,54.53
2018-03-18T04:57:56.529Z,52.17
2018-03-18T05:00:23.527Z,56.17
2018-03-18T05:02:50.603Z,51.90
2018-03-18T05:05:17.617Z,53.33
2018-03-18T05:07:44.639Z,58.93
2018-03-18T05:10:11.703Z,56.93
2018-03-18T05:12:39.442Z,57.80
2018-03-18T05:15:06.464Z,56.40
2018-03-18T05:17:33.537Z,49.80
2018-03-18T05:20:00.561Z,51.93
2018-03-18T05:22:27.585Z,51.47
2018-03-18T05:24:54.650Z,52.47
2018-03-18T05:27:21.673Z,52.37
2018-03-18T05:29:48.709Z,51.70
2018-03-18T05:32:15.792Z,50.60
2018-03-18T05:34:42.801Z,54.43
2018-03-18T05:37:09.827Z,55.40
2018-03-18T05:39:39.877Z,55.17
2018-03-18T05:42:06.920Z,59.93
2018-03-18T05:44:34.026Z,57.50
2018-03-18T05:47:01.111Z,57.37
2018-03-18T05:49:28.128Z,58.33
2018-03-18T05:51:55.161Z,60.43
2018-03-18T05:54:22.217Z,58.37
2018-03-18T05:56:49.236Z,53.00
2018-03-18T05:59:16.256Z,52.80
2018-03-18T06:01:43.333Z,56.47
2018-03-18T06:04:10.358Z,56.47
2018-03-18T06:06:38.193Z,58.70
2018-03-18T06:09:05.712Z,61.40
2018-03-18T06:11:32.736Z,59.90
2018-03-18T06:13:59.754Z,62.67
2018-03-18T06:16:26.839Z,60.87
2018-03-18T06:21:32.386Z,61.50
2018-03-18T06:23:59.419Z,57.40
2018-03-18T06:26:26.445Z,58.13
2018-03-18T06:28:53.520Z,54.60
2018-03-18T06:31:20.552Z,55.87
2018-03-18T06:33:48.428Z,55.37
2018-03-18T06:36:16.441Z,54.43
2018-03-18T06:38:43.460Z,58.13
2018-03-18T06:41:10.495Z,54.30
2018-03-18T06:43:37.556Z,60.33
2018-03-18T06:46:04.583Z,48.47
2018-03-18T06:48:32.562Z,50.30
2018-03-18T06:50:59.629Z,50.70
2018-03-18T06:53:26.664Z,49.57
2018-03-18T06:55:53.679Z,49.20
2018-03-18T06:58:20.756Z,52.93
2018-03-18T07:00:49.728Z,51.07
2018-03-18T07:03:16.761Z,51.03
2018-03-18T07:05:43.829Z,51.13
2018-03-18T07:08:12.059Z,51.53
2018-03-18T07:10:37.872Z,55.57
2018-03-18T07:13:05.122Z,52.50
2018-03-18T07:15:32.281Z,53.10
2018-03-18T07:17:59.285Z,49.33
2018-03-18T07:20:26.350Z,53.37
2018-03-18T07:22:56.363Z,55.03
2018-03-18T07:25:23.388Z,54.60
2018-03-18T07:27:52.030Z,54.83
2018-03-18T07:30:19.022Z,57.63
2018-03-18T07:32:46.139Z,58.20
2018-03-18T07:35:13.205Z,54.03
2018-03-18T07:37:47.251Z,54.43
2018-03-18T07:40:10.290Z,57.10
2018-03-18T07:45:16.134Z,58.20
2018-03-18T07:47:43.358Z,56.13
2018-03-18T07:50:10.369Z,57.13
2018-03-18T07:52:37.387Z,54.07
2018-03-18T07:55:04.481Z,53.87
2018-03-18T07:57:31.472Z,53.00
2018-03-18T07:59:58.489Z,55.50
2018-03-18T08:02:25.555Z,52.43
2018-03-18T08:04:52.586Z,55.40
2018-03-18T08:07:19.597Z,52.40
2018-03-18T08:09:46.666Z,51.77
2018-03-18T08:12:13.690Z,51.40
2018-03-18T08:14:40.802Z,48.03
2018-03-18T08:17:07.886Z,47.77
2018-03-18T08:19:34.899Z,56.43
2018-03-18T08:22:01.914Z,51.50
2018-03-18T08:24:28.976Z,47.77
2018-03-18T08:26:55.996Z,50.43
2018-03-18T08:29:23.026Z,48.77
2018-03-18T08:31:50.075Z,47.90
2018-03-18T08:34:17.093Z,50.73
2018-03-18T08:36:44.104Z,47.97
2018-03-18T08:39:11.188Z,46.23
2018-03-18T08:41:38.201Z,47.40
2018-03-18T08:44:05.213Z,46.73
2018-03-18T08:46:32.283Z,46.67
2018-03-18T08:48:59.297Z,41.30
2018-03-18T08:51:26.309Z,46.93
2018-03-18T08:53:53.648Z,47.43
2018-03-18T08:56:20.594Z,44.27
2018-03-18T08:58:47.610Z,49.00
2018-03-18T09:01:14.727Z,47.87
2018-03-18T09:03:41.696Z,44.97
2018-03-18T09:06:09.079Z,46.00
2018-03-18T09:08:36.152Z,43.97
2018-03-18T09:13:43.825Z,46.28
2018-03-18T09:16:10.851Z,45.43
2018-03-18T09:18:37.882Z,40.67
2018-03-18T09:21:04.952Z,43.57
2018-03-18T09:23:32.138Z,48.67
2018-03-18T09:25:59.134Z,47.67
2018-03-18T09:28:29.547Z,44.50
2018-03-18T09:30:56.519Z,48.03
2018-03-18T09:33:23.588Z,47.97
2018-03-18T09:35:50.622Z,44.63
2018-03-18T09:38:17.777Z,44.50
2018-03-18T09:40:44.759Z,50.00
2018-03-18T09:43:11.830Z,38.67
2018-03-18T09:45:39.054Z,47.87
2018-03-18T09:48:06.132Z,41.50
2018-03-18T09:50:33.170Z,45.10
2018-03-18T09:53:00.195Z,42.43
2018-03-18T09:55:27.216Z,40.40
2018-03-18T09:57:54.323Z,42.83
2018-03-18T10:00:21.339Z,43.53
2018-03-18T10:02:48.354Z,41.97
2018-03-18T10:05:15.422Z,44.87
2018-03-18T10:07:42.439Z,43.87
2018-03-18T10:10:09.451Z,42.77
2018-03-18T10:12:36.988Z,40.43
2018-03-18T10:15:04.000Z,34.70
2018-03-18T10:17:31.016Z,37.03
2018-03-18T10:19:58.089Z,36.13
2018-03-18T10:22:25.131Z,35.77
2018-03-18T10:24:52.129Z,32.73
2018-03-18T10:27:19.192Z,26.13
2018-03-18T10:29:46.223Z,39.33
2018-03-18T10:32:13.249Z,21.10
2018-03-18T10:37:19.216Z,36.67
2018-03-18T10:39:46.287Z,35.97
2018-03-18T10:42:13.315Z,34.17
2018-03-18T10:44:40.338Z,35.03
2018-03-18T10:47:07.471Z,34.97
2018-03-18T10:49:34.459Z,33.67
2018-03-18T10:52:01.491Z,35.03
2018-03-18T10:54:29.393Z,31.63
2018-03-18T10:56:56.426Z,35.90
2018-03-18T10:59:23.462Z,34.13
2018-03-18T11:01:50.550Z,30.97
2018-03-18T11:04:17.638Z,33.87
2018-03-18T11:06:44.676Z,35.00
2018-03-18T11:09:11.744Z,32.20
2018-03-18T11:11:38.851Z,30.97
2018-03-18T11:14:05.872Z,31.90
2018-03-18T11:16:32.957Z,31.63
2018-03-18T11:18:59.960Z,38.27
2018-03-18T11:21:26.972Z,34.80
2018-03-18T11:23:54.047Z,28.30
2018-03-18T11:26:21.056Z,34.77
2018-03-18T11:28:48.324Z,34.83
2018-03-18T11:31:15.453Z,32.80
2018-03-18T11:33:42.572Z,36.63
2018-03-18T11:36:09.604Z,33.33
2018-03-18T11:38:36.732Z,32.50
2018-03-18T11:43:31.780Z,34.13
2018-03-18T11:45:58.812Z,31.43
2018-03-18T11:48:26.649Z,32.27
2018-03-18T11:50:53.687Z,32.30
2018-03-18T11:53:20.795Z,31.03
2018-03-18T11:55:47.943Z,28.37
2018-03-18T12:00:55.707Z,34.53
2018-03-18T12:03:22.754Z,31.40
2018-03-18T12:05:50.306Z,32.27
2018-03-18T12:08:29.183Z,32.77
2018-03-18T12:10:56.203Z,33.23
2018-03-18T12:13:23.232Z,30.47
2018-03-18T12:15:50.334Z,32.97
2018-03-18T12:18:17.362Z,32.60
2018-03-18T12:20:45.152Z,35.63
2018-03-18T12:23:12.231Z,39.07
2018-03-18T12:25:39.270Z,33.67
2018-03-18T12:28:06.860Z,32.67
2018-03-18T12:30:33.884Z,36.83
2018-03-18T12:33:00.914Z,33.13
2018-03-18T12:35:28.024Z,33.97
2018-03-18T12:37:56.270Z,35.17
2018-03-18T12:40:29.206Z,38.97
2018-03-18T12:43:08.204Z,37.03
2018-03-18T12:45:36.200Z,34.93
2018-03-18T12:48:03.291Z,34.90
2018-03-18T12:50:30.387Z,30.97
2018-03-18T12:52:57.460Z,32.63
2018-03-18T12:55:24.496Z,28.03
2018-03-18T12:57:51.617Z,27.07
2018-03-18T13:00:18.663Z,28.60
2018-03-18T13:02:45.728Z,23.33
2018-03-18T13:05:12.932Z,24.00
2018-03-18T13:07:40.458Z,23.17
2018-03-18T13:10:07.527Z,21.57
2018-03-18T13:12:35.375Z,24.10
2018-03-18T13:15:02.457Z,22.40
2018-03-18T13:17:29.572Z,22.77
2018-03-18T13:19:56.706Z,23.17
2018-03-18T13:25:04.312Z,21.42
2018-03-18T13:27:31.341Z,18.27
2018-03-18T13:29:58.601Z,16.67
2018-03-18T13:32:25.656Z,17.43
2018-03-18T13:34:52.693Z,18.73
2018-03-18T13:37:19.723Z,20.20
2018-03-18T13:39:46.801Z,18.47
2018-03-18T13:42:13.838Z,20.10
2018-03-18T13:44:40.876Z,22.70
2018-03-18T13:47:07.935Z,18.07
2018-03-18T13:49:34.963Z,20.37
2018-03-18T13:52:02.106Z,22.03
2018-03-18T13:54:29.254Z,17.27
2018-03-18T13:56:56.222Z,18.20
2018-03-18T13:59:23.250Z,21.63
2018-03-18T14:01:50.347Z,19.37
2018-03-18T14:04:17.366Z,16.93
2018-03-18T14:06:45.226Z,20.37
2018-03-18T14:09:12.308Z,18.70
2018-03-18T14:11:39.339Z,19.83
2018-03-18T14:14:06.398Z,23.57
2018-03-18T14:16:33.469Z,19.43
2018-03-18T14:19:00.513Z,20.00
2018-03-18T14:21:27.537Z,22.10
2018-03-18T14:23:54.614Z,19.70
2018-03-18T14:26:21.649Z,23.07
2018-03-18T14:28:48.673Z,20.43
2018-03-18T14:31:15.756Z,20.97
2018-03-18T14:33:42.782Z,19.47
2018-03-18T14:36:09.808Z,20.93
2018-03-18T14:38:36.891Z,20.37
2018-03-18T14:41:03.928Z,24.17
2018-03-18T14:43:31.508Z,22.73
2018-03-18T14:45:58.596Z,19.53
2018-03-18T14:51:07.173Z,23.02
2018-03-18T14:53:34.184Z,22.30
2018-03-18T14:56:01.210Z,22.20
2018-03-18T14:58:28.735Z,25.00
2018-03-18T15:00:55.763Z,26.10
2018-03-18T15:03:22.825Z,25.07
2018-03-18T15:05:49.916Z,27.03
2018-03-18T15:08:17.732Z,26.00
2018-03-18T15:10:44.781Z,26.47
2018-03-18T15:13:11.973Z,25.37
2018-03-18T15:15:39.000Z,25.10
2018-03-18T15:18:06.071Z,27.03
2018-03-18T15:20:33.146Z,27.77
2018-03-18T15:23:00.212Z,28.60
2018-03-18T15:25:27.359Z,26.40
2018-03-18T15:27:54.532Z,24.83
2018-03-18T15:30:21.547Z,25.80
2018-03-18T15:32:48.596Z,27.70
2018-03-18T15:35:15.733Z,25.13
2018-03-18T15:37:42.966Z,28.37
2018-03-18T15:40:10.142Z,27.83
2018-03-18T15:42:37.414Z,28.40
2018-03-18T15:45:04.443Z,28.00
2018-03-18T15:47:31.489Z,23.53
2018-03-18T15:50:00.127Z,27.87
2018-03-18T15:52:27.558Z,29.17
2018-03-18T15:54:54.524Z,29.60
2018-03-18T15:57:21.569Z,24.53
2018-03-18T15:59:48.592Z,29.10
2018-03-18T16:02:15.663Z,32.67
2018-03-18T16:04:42.723Z,26.87
2018-03-18T16:07:09.784Z,31.40
2018-03-18T16:09:36.799Z,30.63
2018-03-18T16:12:04.729Z,37.13
2018-03-18T16:14:35.508Z,31.50
2018-03-18T16:22:24.549Z,28.83
2018-03-18T16:27:31.072Z,35.00
2018-03-18T16:30:10.067Z,31.80
2018-03-18T16:32:37.092Z,27.57
2018-03-18T16:35:04.107Z,33.43
2018-03-18T16:37:31.177Z,29.47
2018-03-18T16:39:58.201Z,32.67
2018-03-18T16:42:25.241Z,34.77
2018-03-18T16:44:53.300Z,30.83
2018-03-18T16:47:20.378Z,31.93
2018-03-18T16:49:47.360Z,28.00
2018-03-18T16:52:15.427Z,30.67
2018-03-18T16:54:42.473Z,28.90
2018-03-18T16:57:10.026Z,31.97
2018-03-18T16:59:37.095Z,36.20
2018-03-18T17:02:04.109Z,34.23
2018-03-18T17:04:31.118Z,30.23
2018-03-18T17:06:58.192Z,35.73
2018-03-18T17:09:25.223Z,33.57
2018-03-18T17:11:52.329Z,32.43
2018-03-18T17:14:19.388Z,33.13
2018-03-18T17:16:46.420Z,36.27
2018-03-18T17:19:13.439Z,33.03
2018-03-18T17:21:40.539Z,32.83
2018-03-18T17:24:07.603Z,36.43
2018-03-18T17:26:36.508Z,30.07
2018-03-18T17:29:01.695Z,31.13
2018-03-18T17:31:28.733Z,34.73
2018-03-18T17:33:56.671Z,31.27
2018-03-18T17:36:23.742Z,31.60
2018-03-18T17:38:51.028Z,30.53
2018-03-18T17:41:18.098Z,36.80
2018-03-18T17:43:45.149Z,31.30
2018-03-18T17:46:23.931Z,29.83
2018-03-18T17:49:02.915Z,30.73
2018-03-18T17:51:41.667Z,32.63
2018-03-18T17:56:59.088Z,34.25
2018-03-18T17:59:26.162Z,29.67
2018-03-18T18:01:53.184Z,38.57
2018-03-18T18:04:20.310Z,38.57
2018-03-18T18:06:47.362Z,31.60
2018-03-18T18:09:14.399Z,33.67
2018-03-18T18:11:42.360Z,33.40
2018-03-18T18:14:09.428Z,33.87
2018-03-18T18:16:36.441Z,34.37
2018-03-18T18:19:03.459Z,30.20
2018-03-18T18:21:30.521Z,32.63
2018-03-18T18:23:57.545Z,31.83
2018-03-18T18:26:24.562Z,32.77
2018-03-18T18:28:51.636Z,33.50
2018-03-18T18:31:18.646Z,37.50
2018-03-18T18:33:45.660Z,33.90
2018-03-18T18:36:12.741Z,35.80
2018-03-18T18:38:39.758Z,32.40
2018-03-18T18:41:06.775Z,35.90
2018-03-18T18:43:33.842Z,36.57
2018-03-18T18:46:00.867Z,31.37
2018-03-18T18:48:27.874Z,34.40
2018-03-18T18:50:54.958Z,33.13
2018-03-18T18:53:21.965Z,38.00
2018-03-18T18:55:48.995Z,38.57
2018-03-18T18:58:16.111Z,34.27
2018-03-18T19:00:43.253Z,33.67
2018-03-18T19:03:10.395Z,36.67
2018-03-18T19:05:37.439Z,33.60
2018-03-18T19:08:04.456Z,38.03
2018-03-18T19:10:31.569Z,36.27
2018-03-18T19:12:58.620Z,34.03
2018-03-18T19:15:25.651Z,34.30
2018-03-18T19:17:53.926Z,31.87
2018-03-18T19:22:56.481Z,36.58
2018-03-18T19:25:23.562Z,34.63
2018-03-18T19:27:50.584Z,33.67
2018-03-18T19:30:17.601Z,38.97
2018-03-18T19:32:44.684Z,33.23
2018-03-18T19:35:14.470Z,34.87
2018-03-18T19:37:43.874Z,33.00
2018-03-18T19:40:11.374Z,34.33
2018-03-18T19:42:38.701Z,28.87
2018-03-18T19:45:05.726Z,30.70
2018-03-18T19:47:32.797Z,30.97
2018-03-18T19:49:59.862Z,35.67
2018-03-18T19:52:27.528Z,34.00
2018-03-18T19:54:54.588Z,34.90
2018-03-18T19:57:21.620Z,33.53
2018-03-18T19:59:48.784Z,33.53
2018-03-18T20:02:15.760Z,37.03
2018-03-18T20:04:42.785Z,37.27
2018-03-18T20:07:09.800Z,35.80
2018-03-18T20:09:36.858Z,34.37
2018-03-18T20:12:03.881Z,34.43
2018-03-18T20:14:31.869Z,33.20
2018-03-18T20:16:58.943Z,36.60
2018-03-18T20:19:26.097Z,31.17
2018-03-18T20:21:53.103Z,42.03
2018-03-18T20:24:20.190Z,33.23
2018-03-18T20:26:47.211Z,31.97
2018-03-18T20:29:14.229Z,34.47
2018-03-18T20:31:42.303Z,32.97
2018-03-18T20:34:09.346Z,39.30
2018-03-18T20:36:36.367Z,33.57
2018-03-18T20:41:43.923Z,36.10
2018-03-18T20:44:10.992Z,36.80
2018-03-18T20:46:37.999Z,38.63
2018-03-18T20:49:05.021Z,30.57
2018-03-18T20:51:32.098Z,36.53
2018-03-18T20:53:59.120Z,38.60
2018-03-18T20:56:26.228Z,32.23
2018-03-18T20:58:53.297Z,32.90
2018-03-18T21:01:20.325Z,31.97
2018-03-18T21:03:47.354Z,34.97
2018-03-18T21:06:14.466Z,32.10
2018-03-18T21:08:41.449Z,32.93
2018-03-18T21:11:08.479Z,36.07
2018-03-18T21:13:35.558Z,36.60
2018-03-18T21:16:02.583Z,37.70
2018-03-18T21:18:29.612Z,36.67
2018-03-18T21:20:56.717Z,38.77
2018-03-18T21:23:23.769Z,40.93
2018-03-18T21:25:50.783Z,37.77
2018-03-18T21:28:17.882Z,33.53
2018-03-18T21:30:44.913Z,35.67
2018-03-18T21:33:11.947Z,37.70
2018-03-18T21:35:39.030Z,37.60
2018-03-18T21:38:06.088Z,34.80
2018-03-18T21:40:33.197Z,33.50
2018-03-18T21:43:00.253Z,37.50
2018-03-18T21:45:27.284Z,35.63
2018-03-18T21:47:54.300Z,36.20
2018-03-18T21:50:21.384Z,38.60
2018-03-18T21:52:48.478Z,38.27
2018-03-18T21:55:15.494Z,34.43
2018-03-18T21:57:42.571Z,30.53
2018-03-18T22:02:49.085Z,36.55
2018-03-18T22:07:48.391Z,37.50
2018-03-18T22:10:15.463Z,32.87
2018-03-18T22:12:42.576Z,38.47
2018-03-18T22:15:09.605Z,35.30
2018-03-18T22:17:36.684Z,33.83
2018-03-18T22:20:03.712Z,36.53
2018-03-18T22:22:30.744Z,39.73
2018-03-18T22:24:57.810Z,34.83
2018-03-18T22:27:24.834Z,37.10
2018-03-18T22:32:32.511Z,39.63
2018-03-18T22:34:59.540Z,34.90
2018-03-18T22:37:26.663Z,37.43
2018-03-18T22:39:53.746Z,37.97
2018-03-18T22:42:21.108Z,33.60
2018-03-18T22:44:49.116Z,39.33
2018-03-18T22:47:16.198Z,26.40
2018-03-18T22:49:43.316Z,34.63
2018-03-18T22:52:10.335Z,38.37
2018-03-18T22:54:37.411Z,29.37
2018-03-18T22:57:04.433Z,28.13
2018-03-18T22:59:31.444Z,31.90
2018-03-18T23:01:58.515Z,35.57
2018-03-18T23:04:25.569Z,30.97
2018-03-18T23:06:52.567Z,33.93
2018-03-18T23:09:19.639Z,25.37
2018-03-18T23:11:46.685Z,33.00
2018-03-18T23:14:14.016Z,37.30
2018-03-18T23:16:41.092Z,37.93
2018-03-18T23:21:47.134Z,38.05
2018-03-18T23:24:14.157Z,34.70
2018-03-18T23:26:41.183Z,34.83
2018-03-18T23:29:08.260Z,39.27
2018-03-18T23:31:35.266Z,36.90
2018-03-18T23:34:02.289Z,33.40
2018-03-18T23:36:29.405Z,32.33
2018-03-18T23:38:56.454Z,34.20
2018-03-18T23:41:23.477Z,33.23
2018-03-18T23:43:50.546Z,38.90
2018-03-18T23:46:17.561Z,42.57
2018-03-18T23:48:44.584Z,33.90
2018-03-18T23:51:11.637Z,37.73
2018-03-18T23:53:38.658Z,40.70
2018-03-18T23:56:05.689Z,32.93
2018-03-18T23:58:32.755Z,36.90
